sensor_id;sensor_type;location;lat;lon;timestamp;P1;durP1;ratioP1;P2;durP2;ratioP2
29824;SDS011;16713;52.916;12.834;2024-03-22T00:00:31;17.52;;;11.73;;
29824;SDS011;16713;52.916;12.834;2024-03-22T00:02:56;21.15;;;13.30;;
29824;SDS011;16713;52.916;12.834;2024-03-22T00:05:21;20.20;;;12.32;;
29824;SDS011;16713;52.916;12.834;2024-03-22T00:07:47;17.85;;;12.02;;
29824;SDS011;16713;52.916;12.834;2024-03-22T00:10:13;18.98;;;12.65;;
29824;SDS011;16713;52.916;12.834;2024-03-22T00:12:39;17.83;;;12.23;;
29824;SDS011;16713;52.916;12.834;2024-03-22T00:15:05;18.63;;;12.65;;
29824;SDS011;16713;52.916;12.834;2024-03-22T00:17:31;16.75;;;11.48;;
29824;SDS011;16713;52.916;12.834;2024-03-22T00:19:56;18.88;;;12.95;;
29824;SDS011;16713;52.916;12.834;2024-03-22T00:22:22;15.93;;;11.50;;
29824;SDS011;16713;52.916;12.834;2024-03-22T00:24:47;19.13;;;12.73;;
29824;SDS011;16713;52.916;12.834;2024-03-22T00:27:13;18.10;;;11.82;;
29824;SDS011;16713;52.916;12.834;2024-03-22T00:29:38;20.55;;;12.63;;
29824;SDS011;16713;52.916;12.834;2024-03-22T00:32:04;19.65;;;12.40;;
29824;SDS011;16713;52.916;12.834;2024-03-22T00:34:30;19.63;;;12.20;;
29824;SDS011;16713;52.916;12.834;2024-03-22T00:36:55;20.13;;;12.18;;
29824;SDS011;16713;52.916;12.834;2024-03-22T00:39:21;20.80;;;13.63;;
29824;SDS011;16713;52.916;12.834;2024-03-22T00:41:46;20.02;;;12.55;;
29824;SDS011;16713;52.916;12.834;2024-03-22T00:44:12;19.75;;;12.93;;
29824;SDS011;16713;52.916;12.834;2024-03-22T00:46:37;18.55;;;13.25;;
29824;SDS011;16713;52.916;12.834;2024-03-22T00:49:02;20.05;;;12.52;;
29824;SDS011;16713;52.916;12.834;2024-03-22T00:51:28;19.40;;;12.95;;
29824;SDS011;16713;52.916;12.834;2024-03-22T00:53:53;19.42;;;12.25;;
29824;SDS011;16713;52.916;12.834;2024-03-22T00:56:19;22.35;;;13.43;;
29824;SDS011;16713;52.916;12.834;2024-03-22T00:58:44;18.40;;;12.23;;
29824;SDS011;16713;52.916;12.834;2024-03-22T01:01:10;22.55;;;13.43;;
29824;SDS011;16713;52.916;12.834;2024-03-22T01:03:35;21.27;;;13.45;;
29824;SDS011;16713;52.916;12.834;2024-03-22T01:06:01;23.33;;;13.43;;
29824;SDS011;16713;52.916;12.834;2024-03-22T01:08:27;24.35;;;13.68;;
29824;SDS011;16713;52.916;12.834;2024-03-22T01:10:53;22.83;;;14.43;;
29824;SDS011;16713;52.916;12.834;2024-03-22T01:13:18;21.10;;;13.65;;
29824;SDS011;16713;52.916;12.834;2024-03-22T01:15:44;20.05;;;12.93;;
29824;SDS011;16713;52.916;12.834;2024-03-22T01:18:11;20.05;;;13.23;;
29824;SDS011;16713;52.916;12.834;2024-03-22T01:20:37;23.00;;;13.32;;
29824;SDS011;16713;52.916;12.834;2024-03-22T01:23:02;19.27;;;12.45;;
29824;SDS011;16713;52.916;12.834;2024-03-22T01:25:28;26.70;;;13.95;;
29824;SDS011;16713;52.916;12.834;2024-03-22T01:27:54;24.70;;;13.23;;
29824;SDS011;16713;52.916;12.834;2024-03-22T01:30:20;25.25;;;14.32;;
29824;SDS011;16713;52.916;12.834;2024-03-22T01:32:46;19.05;;;12.75;;
29824;SDS011;16713;52.916;12.834;2024-03-22T01:35:13;22.92;;;14.05;;
29824;SDS011;16713;52.916;12.834;2024-03-22T01:37:38;21.25;;;12.80;;
29824;SDS011;16713;52.916;12.834;2024-03-22T01:40:04;22.90;;;14.07;;
29824;SDS011;16713;52.916;12.834;2024-03-22T01:42:30;22.23;;;13.75;;
29824;SDS011;16713;52.916;12.834;2024-03-22T01:44:56;21.98;;;14.38;;
29824;SDS011;16713;52.916;12.834;2024-03-22T01:47:21;20.60;;;12.70;;
29824;SDS011;16713;52.916;12.834;2024-03-22T01:49:47;22.05;;;13.43;;
29824;SDS011;16713;52.916;12.834;2024-03-22T01:52:15;23.25;;;13.88;;
29824;SDS011;16713;52.916;12.834;2024-03-22T01:54:40;19.90;;;12.52;;
29824;SDS011;16713;52.916;12.834;2024-03-22T01:57:06;22.15;;;13.20;;
29824;SDS011;16713;52.916;12.834;2024-03-22T01:59:32;21.92;;;12.93;;
29824;SDS011;16713;52.916;12.834;2024-03-22T02:01:58;22.65;;;14.10;;
29824;SDS011;16713;52.916;12.834;2024-03-22T02:04:24;22.42;;;13.52;;
29824;SDS011;16713;52.916;12.834;2024-03-22T02:06:49;23.08;;;13.27;;
29824;SDS011;16713;52.916;12.834;2024-03-22T02:09:15;21.27;;;12.93;;
29824;SDS011;16713;52.916;12.834;2024-03-22T02:11:41;21.92;;;12.90;;
29824;SDS011;16713;52.916;12.834;2024-03-22T02:14:07;22.20;;;12.63;;
29824;SDS011;16713;52.916;12.834;2024-03-22T02:16:33;23.45;;;13.35;;
29824;SDS011;16713;52.916;12.834;2024-03-22T02:18:58;20.48;;;12.43;;
29824;SDS011;16713;52.916;12.834;2024-03-22T02:21:24;22.02;;;12.95;;
29824;SDS011;16713;52.916;12.834;2024-03-22T02:23:49;22.75;;;12.30;;
29824;SDS011;16713;52.916;12.834;2024-03-22T02:26:15;20.63;;;13.25;;
29824;SDS011;16713;52.916;12.834;2024-03-22T02:28:40;21.40;;;12.20;;
29824;SDS011;16713;52.916;12.834;2024-03-22T02:31:06;25.92;;;13.32;;
29824;SDS011;16713;52.916;12.834;2024-03-22T02:33:31;21.42;;;12.10;;
29824;SDS011;16713;52.916;12.834;2024-03-22T02:35:57;20.00;;;12.15;;
29824;SDS011;16713;52.916;12.834;2024-03-22T02:38:23;21.13;;;11.82;;
29824;SDS011;16713;52.916;12.834;2024-03-22T02:40:49;23.90;;;12.77;;
29824;SDS011;16713;52.916;12.834;2024-03-22T02:43:18;25.13;;;12.88;;
29824;SDS011;16713;52.916;12.834;2024-03-22T02:45:44;24.20;;;13.40;;
29824;SDS011;16713;52.916;12.834;2024-03-22T02:48:09;20.42;;;12.88;;
29824;SDS011;16713;52.916;12.834;2024-03-22T02:50:38;23.77;;;13.15;;
29824;SDS011;16713;52.916;12.834;2024-03-22T02:53:04;20.85;;;12.40;;
29824;SDS011;16713;52.916;12.834;2024-03-22T02:55:30;25.95;;;12.85;;
29824;SDS011;16713;52.916;12.834;2024-03-22T02:58:01;22.90;;;12.00;;
29824;SDS011;16713;52.916;12.834;2024-03-22T03:00:26;22.13;;;12.60;;
29824;SDS011;16713;52.916;12.834;2024-03-22T03:02:52;22.35;;;12.60;;
29824;SDS011;16713;52.916;12.834;2024-03-22T03:05:18;24.98;;;14.30;;
29824;SDS011;16713;52.916;12.834;2024-03-22T03:07:43;27.73;;;12.80;;
29824;SDS011;16713;52.916;12.834;2024-03-22T03:10:09;19.05;;;11.60;;
29824;SDS011;16713;52.916;12.834;2024-03-22T03:12:35;22.33;;;13.52;;
29824;SDS011;16713;52.916;12.834;2024-03-22T03:15:00;26.10;;;12.75;;
29824;SDS011;16713;52.916;12.834;2024-03-22T03:17:26;24.42;;;12.85;;
29824;SDS011;16713;52.916;12.834;2024-03-22T03:19:51;23.23;;;13.15;;
29824;SDS011;16713;52.916;12.834;2024-03-22T03:22:17;22.73;;;14.18;;
29824;SDS011;16713;52.916;12.834;2024-03-22T03:24:43;23.15;;;13.38;;
29824;SDS011;16713;52.916;12.834;2024-03-22T03:27:09;25.00;;;14.07;;
29824;SDS011;16713;52.916;12.834;2024-03-22T03:29:34;25.35;;;13.10;;
29824;SDS011;16713;52.916;12.834;2024-03-22T03:31:59;22.75;;;12.50;;
29824;SDS011;16713;52.916;12.834;2024-03-22T03:34:25;21.88;;;12.57;;
29824;SDS011;16713;52.916;12.834;2024-03-22T03:36:50;25.50;;;13.63;;
29824;SDS011;16713;52.916;12.834;2024-03-22T03:39:16;23.58;;;12.90;;
29824;SDS011;16713;52.916;12.834;2024-03-22T03:41:41;21.90;;;13.32;;
29824;SDS011;16713;52.916;12.834;2024-03-22T03:44:06;25.55;;;12.95;;
29824;SDS011;16713;52.916;12.834;2024-03-22T03:46:33;24.10;;;12.88;;
29824;SDS011;16713;52.916;12.834;2024-03-22T03:48:58;24.25;;;13.27;;
29824;SDS011;16713;52.916;12.834;2024-03-22T03:51:23;22.60;;;13.20;;
29824;SDS011;16713;52.916;12.834;2024-03-22T03:53:49;20.63;;;13.13;;
29824;SDS011;16713;52.916;12.834;2024-03-22T03:56:14;24.48;;;13.50;;
29824;SDS011;16713;52.916;12.834;2024-03-22T03:58:40;22.95;;;13.65;;
29824;SDS011;16713;52.916;12.834;2024-03-22T04:01:06;24.98;;;13.90;;
29824;SDS011;16713;52.916;12.834;2024-03-22T04:03:32;24.08;;;14.43;;
29824;SDS011;16713;52.916;12.834;2024-03-22T04:05:57;21.92;;;13.93;;
29824;SDS011;16713;52.916;12.834;2024-03-22T04:08:26;25.83;;;13.73;;
29824;SDS011;16713;52.916;12.834;2024-03-22T04:10:52;26.27;;;13.60;;
29824;SDS011;16713;52.916;12.834;2024-03-22T04:13:18;23.75;;;14.00;;
29824;SDS011;16713;52.916;12.834;2024-03-22T04:15:44;25.45;;;13.65;;
29824;SDS011;16713;52.916;12.834;2024-03-22T04:18:09;21.10;;;13.30;;
29824;SDS011;16713;52.916;12.834;2024-03-22T04:20:35;24.70;;;14.23;;
29824;SDS011;16713;52.916;12.834;2024-03-22T04:23:00;26.05;;;13.70;;
29824;SDS011;16713;52.916;12.834;2024-03-22T04:25:26;24.85;;;14.15;;
29824;SDS011;16713;52.916;12.834;2024-03-22T04:27:51;23.58;;;13.52;;
29824;SDS011;16713;52.916;12.834;2024-03-22T04:30:16;25.40;;;14.20;;
29824;SDS011;16713;52.916;12.834;2024-03-22T04:32:42;25.70;;;14.18;;
29824;SDS011;16713;52.916;12.834;2024-03-22T04:35:10;25.40;;;14.02;;
29824;SDS011;16713;52.916;12.834;2024-03-22T04:37:36;27.33;;;13.93;;
29824;SDS011;16713;52.916;12.834;2024-03-22T04:40:01;26.33;;;13.73;;
29824;SDS011;16713;52.916;12.834;2024-03-22T04:42:27;23.85;;;14.18;;
29824;SDS011;16713;52.916;12.834;2024-03-22T04:44:53;23.23;;;14.40;;
29824;SDS011;16713;52.916;12.834;2024-03-22T04:47:18;26.73;;;13.70;;
29824;SDS011;16713;52.916;12.834;2024-03-22T04:49:44;24.15;;;14.27;;
29824;SDS011;16713;52.916;12.834;2024-03-22T04:52:10;27.95;;;15.20;;
29824;SDS011;16713;52.916;12.834;2024-03-22T04:54:35;24.42;;;14.77;;
29824;SDS011;16713;52.916;12.834;2024-03-22T04:57:00;25.33;;;14.30;;
29824;SDS011;16713;52.916;12.834;2024-03-22T04:59:26;28.30;;;14.50;;
29824;SDS011;16713;52.916;12.834;2024-03-22T05:01:51;25.67;;;14.95;;
29824;SDS011;16713;52.916;12.834;2024-03-22T05:04:17;26.23;;;15.98;;
29824;SDS011;16713;52.916;12.834;2024-03-22T05:06:42;25.23;;;15.02;;
29824;SDS011;16713;52.916;12.834;2024-03-22T05:09:08;32.20;;;17.08;;
29824;SDS011;16713;52.916;12.834;2024-03-22T05:11:35;25.73;;;15.45;;
29824;SDS011;16713;52.916;12.834;2024-03-22T05:14:00;30.30;;;15.88;;
29824;SDS011;16713;52.916;12.834;2024-03-22T05:16:26;31.60;;;15.82;;
29824;SDS011;16713;52.916;12.834;2024-03-22T05:18:51;27.80;;;15.68;;
29824;SDS011;16713;52.916;12.834;2024-03-22T05:21:17;25.40;;;15.73;;
29824;SDS011;16713;52.916;12.834;2024-03-22T05:23:42;25.35;;;15.20;;
29824;SDS011;16713;52.916;12.834;2024-03-22T05:26:08;34.22;;;17.23;;
29824;SDS011;16713;52.916;12.834;2024-03-22T05:28:33;30.83;;;16.15;;
29824;SDS011;16713;52.916;12.834;2024-03-22T05:30:58;25.33;;;14.60;;
29824;SDS011;16713;52.916;12.834;2024-03-22T05:33:24;30.35;;;16.13;;
29824;SDS011;16713;52.916;12.834;2024-03-22T05:35:49;32.88;;;16.40;;
29824;SDS011;16713;52.916;12.834;2024-03-22T05:38:15;31.90;;;16.65;;
29824;SDS011;16713;52.916;12.834;2024-03-22T05:40:40;29.70;;;16.90;;
29824;SDS011;16713;52.916;12.834;2024-03-22T05:43:05;29.75;;;16.13;;
29824;SDS011;16713;52.916;12.834;2024-03-22T05:45:31;29.73;;;15.98;;
29824;SDS011;16713;52.916;12.834;2024-03-22T05:47:56;31.10;;;16.70;;
29824;SDS011;16713;52.916;12.834;2024-03-22T05:50:22;31.77;;;17.38;;
29824;SDS011;16713;52.916;12.834;2024-03-22T05:52:47;29.50;;;17.27;;
29824;SDS011;16713;52.916;12.834;2024-03-22T05:55:13;33.60;;;17.10;;
29824;SDS011;16713;52.916;12.834;2024-03-22T05:57:39;29.30;;;17.10;;
29824;SDS011;16713;52.916;12.834;2024-03-22T06:00:05;33.17;;;17.27;;
29824;SDS011;16713;52.916;12.834;2024-03-22T06:02:32;31.80;;;17.27;;
29824;SDS011;16713;52.916;12.834;2024-03-22T06:04:58;34.53;;;17.90;;
29824;SDS011;16713;52.916;12.834;2024-03-22T06:07:24;36.75;;;19.45;;
29824;SDS011;16713;52.916;12.834;2024-03-22T06:09:50;33.63;;;18.98;;
29824;SDS011;16713;52.916;12.834;2024-03-22T06:12:17;36.13;;;19.73;;
29824;SDS011;16713;52.916;12.834;2024-03-22T06:14:43;38.35;;;18.83;;
29824;SDS011;16713;52.916;12.834;2024-03-22T06:17:09;35.63;;;19.70;;
29824;SDS011;16713;52.916;12.834;2024-03-22T06:19:36;32.75;;;19.17;;
29824;SDS011;16713;52.916;12.834;2024-03-22T06:22:02;31.42;;;18.30;;
29824;SDS011;16713;52.916;12.834;2024-03-22T06:24:27;36.63;;;19.17;;
29824;SDS011;16713;52.916;12.834;2024-03-22T06:26:53;36.30;;;19.67;;
29824;SDS011;16713;52.916;12.834;2024-03-22T06:29:19;34.58;;;19.33;;
29824;SDS011;16713;52.916;12.834;2024-03-22T06:31:44;36.42;;;19.00;;
29824;SDS011;16713;52.916;12.834;2024-03-22T06:34:09;36.42;;;18.67;;
29824;SDS011;16713;52.916;12.834;2024-03-22T06:36:35;32.67;;;18.58;;
29824;SDS011;16713;52.916;12.834;2024-03-22T06:39:01;36.00;;;19.83;;
29824;SDS011;16713;52.916;12.834;2024-03-22T06:41:30;32.85;;;19.02;;
29824;SDS011;16713;52.916;12.834;2024-03-22T06:43:55;37.85;;;21.10;;
29824;SDS011;16713;52.916;12.834;2024-03-22T06:46:21;39.17;;;20.40;;
29824;SDS011;16713;52.916;12.834;2024-03-22T06:48:46;34.90;;;19.13;;
29824;SDS011;16713;52.916;12.834;2024-03-22T06:51:12;37.35;;;20.48;;
29824;SDS011;16713;52.916;12.834;2024-03-22T06:53:37;40.28;;;21.90;;
29824;SDS011;16713;52.916;12.834;2024-03-22T06:56:03;43.63;;;22.13;;
29824;SDS011;16713;52.916;12.834;2024-03-22T06:58:29;35.40;;;19.83;;
29824;SDS011;16713;52.916;12.834;2024-03-22T07:00:54;43.00;;;22.05;;
29824;SDS011;16713;52.916;12.834;2024-03-22T07:03:20;34.78;;;19.98;;
29824;SDS011;16713;52.916;12.834;2024-03-22T07:05:46;40.03;;;20.92;;
29824;SDS011;16713;52.916;12.834;2024-03-22T07:08:12;37.08;;;20.20;;
29824;SDS011;16713;52.916;12.834;2024-03-22T07:10:38;37.95;;;22.42;;
29824;SDS011;16713;52.916;12.834;2024-03-22T07:13:04;37.55;;;20.75;;
29824;SDS011;16713;52.916;12.834;2024-03-22T07:15:30;40.70;;;22.17;;
29824;SDS011;16713;52.916;12.834;2024-03-22T07:17:57;36.78;;;20.58;;
29824;SDS011;16713;52.916;12.834;2024-03-22T07:20:23;38.88;;;21.20;;
29824;SDS011;16713;52.916;12.834;2024-03-22T07:22:49;41.50;;;20.90;;
29824;SDS011;16713;52.916;12.834;2024-03-22T07:25:14;39.42;;;20.25;;
29824;SDS011;16713;52.916;12.834;2024-03-22T07:27:40;38.72;;;22.13;;
29824;SDS011;16713;52.916;12.834;2024-03-22T07:30:06;40.83;;;22.10;;
29824;SDS011;16713;52.916;12.834;2024-03-22T07:32:32;38.85;;;21.15;;
29824;SDS011;16713;52.916;12.834;2024-03-22T07:34:58;36.10;;;20.63;;
29824;SDS011;16713;52.916;12.834;2024-03-22T07:37:23;41.85;;;21.75;;
29824;SDS011;16713;52.916;12.834;2024-03-22T07:39:49;37.15;;;20.88;;
29824;SDS011;16713;52.916;12.834;2024-03-22T07:42:14;41.30;;;23.00;;
29824;SDS011;16713;52.916;12.834;2024-03-22T07:44:40;40.08;;;21.33;;
29824;SDS011;16713;52.916;12.834;2024-03-22T07:47:05;38.47;;;21.60;;
29824;SDS011;16713;52.916;12.834;2024-03-22T07:49:31;37.70;;;20.85;;
29824;SDS011;16713;52.916;12.834;2024-03-22T07:51:59;40.63;;;22.25;;
29824;SDS011;16713;52.916;12.834;2024-03-22T07:54:24;41.90;;;22.67;;
29824;SDS011;16713;52.916;12.834;2024-03-22T07:56:50;52.58;;;22.63;;
29824;SDS011;16713;52.916;12.834;2024-03-22T07:59:15;40.40;;;20.88;;
29824;SDS011;16713;52.916;12.834;2024-03-22T08:01:41;38.47;;;23.08;;
29824;SDS011;16713;52.916;12.834;2024-03-22T08:04:06;39.65;;;21.98;;
29824;SDS011;16713;52.916;12.834;2024-03-22T08:06:31;42.65;;;23.10;;
29824;SDS011;16713;52.916;12.834;2024-03-22T08:08:57;40.72;;;23.17;;
29824;SDS011;16713;52.916;12.834;2024-03-22T08:11:23;42.25;;;23.23;;
29824;SDS011;16713;52.916;12.834;2024-03-22T08:13:48;38.97;;;21.70;;
29824;SDS011;16713;52.916;12.834;2024-03-22T08:16:14;35.85;;;21.38;;
29824;SDS011;16713;52.916;12.834;2024-03-22T08:18:39;38.75;;;21.83;;
29824;SDS011;16713;52.916;12.834;2024-03-22T08:21:05;42.95;;;23.30;;
29824;SDS011;16713;52.916;12.834;2024-03-22T08:23:30;44.88;;;24.83;;
29824;SDS011;16713;52.916;12.834;2024-03-22T08:25:55;42.50;;;23.98;;
29824;SDS011;16713;52.916;12.834;2024-03-22T08:28:22;39.85;;;21.58;;
29824;SDS011;16713;52.916;12.834;2024-03-22T08:30:48;43.33;;;24.25;;
29824;SDS011;16713;52.916;12.834;2024-03-22T08:33:14;38.75;;;23.35;;
29824;SDS011;16713;52.916;12.834;2024-03-22T08:35:39;40.90;;;23.13;;
29824;SDS011;16713;52.916;12.834;2024-03-22T08:38:05;44.83;;;25.02;;
29824;SDS011;16713;52.916;12.834;2024-03-22T08:40:36;41.60;;;23.27;;
29824;SDS011;16713;52.916;12.834;2024-03-22T08:43:02;40.75;;;23.25;;
29824;SDS011;16713;52.916;12.834;2024-03-22T08:45:28;40.58;;;22.95;;
29824;SDS011;16713;52.916;12.834;2024-03-22T08:47:54;41.40;;;23.50;;
29824;SDS011;16713;52.916;12.834;2024-03-22T08:50:19;43.83;;;23.83;;
29824;SDS011;16713;52.916;12.834;2024-03-22T08:52:45;39.85;;;22.33;;
29824;SDS011;16713;52.916;12.834;2024-03-22T08:55:11;41.38;;;23.42;;
29824;SDS011;16713;52.916;12.834;2024-03-22T08:57:36;44.75;;;24.88;;
29824;SDS011;16713;52.916;12.834;2024-03-22T09:00:02;43.35;;;23.98;;
29824;SDS011;16713;52.916;12.834;2024-03-22T09:02:28;40.00;;;23.88;;
29824;SDS011;16713;52.916;12.834;2024-03-22T09:04:53;40.88;;;23.85;;
29824;SDS011;16713;52.916;12.834;2024-03-22T09:07:19;44.30;;;23.25;;
29824;SDS011;16713;52.916;12.834;2024-03-22T09:09:45;47.38;;;25.63;;
29824;SDS011;16713;52.916;12.834;2024-03-22T09:12:10;43.60;;;23.08;;
29824;SDS011;16713;52.916;12.834;2024-03-22T09:14:36;45.97;;;25.00;;
29824;SDS011;16713;52.916;12.834;2024-03-22T09:17:01;48.20;;;25.55;;
29824;SDS011;16713;52.916;12.834;2024-03-22T09:19:27;44.88;;;27.02;;
29824;SDS011;16713;52.916;12.834;2024-03-22T09:21:52;45.92;;;25.77;;
29824;SDS011;16713;52.916;12.834;2024-03-22T09:24:18;45.40;;;24.58;;
29824;SDS011;16713;52.916;12.834;2024-03-22T09:26:43;47.42;;;26.20;;
29824;SDS011;16713;52.916;12.834;2024-03-22T09:29:09;48.75;;;25.20;;
29824;SDS011;16713;52.916;12.834;2024-03-22T09:31:34;44.75;;;24.50;;
29824;SDS011;16713;52.916;12.834;2024-03-22T09:34:00;48.20;;;25.80;;
29824;SDS011;16713;52.916;12.834;2024-03-22T09:36:25;50.55;;;26.95;;
29824;SDS011;16713;52.916;12.834;2024-03-22T09:38:50;43.97;;;24.98;;
29824;SDS011;16713;52.916;12.834;2024-03-22T09:41:18;45.00;;;25.85;;
29824;SDS011;16713;52.916;12.834;2024-03-22T09:43:49;45.28;;;24.50;;
29824;SDS011;16713;52.916;12.834;2024-03-22T09:46:16;50.55;;;27.90;;
29824;SDS011;16713;52.916;12.834;2024-03-22T09:48:50;46.42;;;24.83;;
29824;SDS011;16713;52.916;12.834;2024-03-22T09:51:17;46.38;;;26.25;;
29824;SDS011;16713;52.916;12.834;2024-03-22T09:53:44;45.17;;;24.30;;
29824;SDS011;16713;52.916;12.834;2024-03-22T09:56:10;45.55;;;23.77;;
29824;SDS011;16713;52.916;12.834;2024-03-22T09:58:40;46.35;;;25.60;;
29824;SDS011;16713;52.916;12.834;2024-03-22T10:01:06;44.17;;;26.13;;
29824;SDS011;16713;52.916;12.834;2024-03-22T10:03:32;47.72;;;26.08;;
29824;SDS011;16713;52.916;12.834;2024-03-22T10:05:58;48.70;;;25.13;;
29824;SDS011;16713;52.916;12.834;2024-03-22T10:08:24;43.08;;;24.13;;
29824;SDS011;16713;52.916;12.834;2024-03-22T10:10:50;42.03;;;24.15;;
29824;SDS011;16713;52.916;12.834;2024-03-22T10:13:15;44.15;;;23.90;;
29824;SDS011;16713;52.916;12.834;2024-03-22T10:15:40;49.28;;;26.88;;
29824;SDS011;16713;52.916;12.834;2024-03-22T10:18:06;45.30;;;24.90;;
29824;SDS011;16713;52.916;12.834;2024-03-22T10:20:33;46.35;;;26.33;;
29824;SDS011;16713;52.916;12.834;2024-03-22T10:22:59;47.70;;;26.13;;
29824;SDS011;16713;52.916;12.834;2024-03-22T10:25:28;46.53;;;26.40;;
29824;SDS011;16713;52.916;12.834;2024-03-22T10:27:54;47.05;;;26.40;;
29824;SDS011;16713;52.916;12.834;2024-03-22T10:30:20;43.22;;;25.25;;
29824;SDS011;16713;52.916;12.834;2024-03-22T10:32:47;46.42;;;25.80;;
29824;SDS011;16713;52.916;12.834;2024-03-22T10:35:14;47.22;;;25.00;;
29824;SDS011;16713;52.916;12.834;2024-03-22T10:37:40;44.70;;;25.55;;
29824;SDS011;16713;52.916;12.834;2024-03-22T10:40:06;46.70;;;26.90;;
29824;SDS011;16713;52.916;12.834;2024-03-22T10:42:35;46.72;;;26.23;;
29824;SDS011;16713;52.916;12.834;2024-03-22T10:45:02;48.65;;;25.63;;
29824;SDS011;16713;52.916;12.834;2024-03-22T10:47:29;51.42;;;26.70;;
29824;SDS011;16713;52.916;12.834;2024-03-22T10:50:13;47.72;;;27.15;;
29824;SDS011;16713;52.916;12.834;2024-03-22T10:55:24;43.47;;;26.25;;
29824;SDS011;16713;52.916;12.834;2024-03-22T10:57:56;47.33;;;25.80;;
29824;SDS011;16713;52.916;12.834;2024-03-22T11:00:28;46.28;;;25.73;;
29824;SDS011;16713;52.916;12.834;2024-03-22T11:02:55;52.33;;;28.00;;
29824;SDS011;16713;52.916;12.834;2024-03-22T11:05:20;49.78;;;28.20;;
29824;SDS011;16713;52.916;12.834;2024-03-22T11:07:46;46.30;;;25.40;;
29824;SDS011;16713;52.916;12.834;2024-03-22T11:10:12;47.67;;;26.38;;
29824;SDS011;16713;52.916;12.834;2024-03-22T11:12:39;44.70;;;26.10;;
29824;SDS011;16713;52.916;12.834;2024-03-22T11:15:05;49.65;;;25.95;;
29824;SDS011;16713;52.916;12.834;2024-03-22T11:17:30;49.15;;;26.38;;
29824;SDS011;16713;52.916;12.834;2024-03-22T11:19:56;48.33;;;25.55;;
29824;SDS011;16713;52.916;12.834;2024-03-22T11:22:22;51.63;;;28.70;;
29824;SDS011;16713;52.916;12.834;2024-03-22T11:24:48;45.92;;;25.35;;
29824;SDS011;16713;52.916;12.834;2024-03-22T11:27:13;45.13;;;25.55;;
29824;SDS011;16713;52.916;12.834;2024-03-22T11:29:39;50.17;;;27.20;;
29824;SDS011;16713;52.916;12.834;2024-03-22T11:32:07;47.97;;;25.63;;
29824;SDS011;16713;52.916;12.834;2024-03-22T11:34:39;48.53;;;25.80;;
29824;SDS011;16713;52.916;12.834;2024-03-22T11:37:06;44.55;;;25.08;;
29824;SDS011;16713;52.916;12.834;2024-03-22T11:39:36;47.97;;;26.65;;
29824;SDS011;16713;52.916;12.834;2024-03-22T11:42:03;43.88;;;25.20;;
29824;SDS011;16713;52.916;12.834;2024-03-22T11:44:30;47.20;;;26.10;;
29824;SDS011;16713;52.916;12.834;2024-03-22T11:46:57;45.20;;;24.88;;
29824;SDS011;16713;52.916;12.834;2024-03-22T11:49:22;42.58;;;24.85;;
29824;SDS011;16713;52.916;12.834;2024-03-22T11:51:51;49.78;;;25.75;;
29824;SDS011;16713;52.916;12.834;2024-03-22T11:54:18;42.55;;;25.10;;
29824;SDS011;16713;52.916;12.834;2024-03-22T11:56:45;44.53;;;24.40;;
29824;SDS011;16713;52.916;12.834;2024-03-22T11:59:10;48.15;;;25.92;;
29824;SDS011;16713;52.916;12.834;2024-03-22T12:01:36;45.63;;;26.13;;
29824;SDS011;16713;52.916;12.834;2024-03-22T12:04:01;45.97;;;26.30;;
29824;SDS011;16713;52.916;12.834;2024-03-22T12:06:27;44.53;;;24.85;;
29824;SDS011;16713;52.916;12.834;2024-03-22T12:08:52;45.22;;;24.52;;
29824;SDS011;16713;52.916;12.834;2024-03-22T12:11:18;44.95;;;26.55;;
29824;SDS011;16713;52.916;12.834;2024-03-22T12:13:43;44.28;;;24.02;;
29824;SDS011;16713;52.916;12.834;2024-03-22T12:16:09;44.25;;;23.90;;
29824;SDS011;16713;52.916;12.834;2024-03-22T12:18:34;46.78;;;25.05;;
29824;SDS011;16713;52.916;12.834;2024-03-22T12:21:00;45.33;;;24.45;;
29824;SDS011;16713;52.916;12.834;2024-03-22T12:23:26;49.35;;;25.35;;
29824;SDS011;16713;52.916;12.834;2024-03-22T12:25:51;40.97;;;24.65;;
29824;SDS011;16713;52.916;12.834;2024-03-22T12:28:17;39.10;;;23.40;;
29824;SDS011;16713;52.916;12.834;2024-03-22T12:30:43;44.33;;;25.02;;
29824;SDS011;16713;52.916;12.834;2024-03-22T12:33:09;37.45;;;22.42;;
29824;SDS011;16713;52.916;12.834;2024-03-22T12:35:42;36.22;;;21.50;;
29824;SDS011;16713;52.916;12.834;2024-03-22T12:38:08;44.45;;;23.10;;
29824;SDS011;16713;52.916;12.834;2024-03-22T12:40:36;41.30;;;22.75;;
29824;SDS011;16713;52.916;12.834;2024-03-22T12:43:02;42.80;;;23.23;;
29824;SDS011;16713;52.916;12.834;2024-03-22T12:45:28;38.72;;;21.88;;
29824;SDS011;16713;52.916;12.834;2024-03-22T12:47:54;40.63;;;22.60;;
29824;SDS011;16713;52.916;12.834;2024-03-22T12:50:19;39.72;;;22.05;;
29824;SDS011;16713;52.916;12.834;2024-03-22T12:52:44;39.05;;;22.60;;
29824;SDS011;16713;52.916;12.834;2024-03-22T12:55:10;38.88;;;20.70;;
29824;SDS011;16713;52.916;12.834;2024-03-22T12:57:36;34.95;;;19.73;;
29824;SDS011;16713;52.916;12.834;2024-03-22T13:00:01;37.45;;;21.80;;
29824;SDS011;16713;52.916;12.834;2024-03-22T13:02:29;37.75;;;21.10;;
29824;SDS011;16713;52.916;12.834;2024-03-22T13:04:54;38.60;;;20.10;;
29824;SDS011;16713;52.916;12.834;2024-03-22T13:07:20;41.85;;;20.85;;
29824;SDS011;16713;52.916;12.834;2024-03-22T13:09:45;41.72;;;21.35;;
29824;SDS011;16713;52.916;12.834;2024-03-22T13:12:11;35.67;;;19.85;;
29824;SDS011;16713;52.916;12.834;2024-03-22T13:14:36;35.65;;;20.17;;
29824;SDS011;16713;52.916;12.834;2024-03-22T13:17:02;38.30;;;19.85;;
29824;SDS011;16713;52.916;12.834;2024-03-22T13:19:27;37.88;;;19.88;;
29824;SDS011;16713;52.916;12.834;2024-03-22T13:21:53;30.88;;;18.55;;
29824;SDS011;16713;52.916;12.834;2024-03-22T13:24:18;35.75;;;20.42;;
29824;SDS011;16713;52.916;12.834;2024-03-22T13:26:44;36.80;;;19.65;;
29824;SDS011;16713;52.916;12.834;2024-03-22T13:29:10;37.05;;;18.95;;
29824;SDS011;16713;52.916;12.834;2024-03-22T13:31:35;34.15;;;19.75;;
29824;SDS011;16713;52.916;12.834;2024-03-22T13:34:01;36.50;;;19.80;;
29824;SDS011;16713;52.916;12.834;2024-03-22T13:36:26;37.40;;;19.80;;
29824;SDS011;16713;52.916;12.834;2024-03-22T13:38:52;35.88;;;18.35;;
29824;SDS011;16713;52.916;12.834;2024-03-22T13:41:17;38.22;;;20.17;;
29824;SDS011;16713;52.916;12.834;2024-03-22T13:43:43;35.70;;;19.27;;
29824;SDS011;16713;52.916;12.834;2024-03-22T13:46:09;34.00;;;19.15;;
29824;SDS011;16713;52.916;12.834;2024-03-22T13:48:39;33.60;;;19.88;;
29824;SDS011;16713;52.916;12.834;2024-03-22T13:51:05;34.45;;;19.20;;
29824;SDS011;16713;52.916;12.834;2024-03-22T13:53:31;34.17;;;18.85;;
29824;SDS011;16713;52.916;12.834;2024-03-22T13:55:56;30.50;;;18.33;;
29824;SDS011;16713;52.916;12.834;2024-03-22T13:58:21;34.58;;;18.65;;
29824;SDS011;16713;52.916;12.834;2024-03-22T14:00:47;31.95;;;18.80;;
29824;SDS011;16713;52.916;12.834;2024-03-22T14:03:12;33.08;;;18.42;;